Terminal Aerodrome Forecast
Issued by NWS Paducah, KY

Home | Current Version | Previous Version | Text Only | Print | Product List | Glossary On
Versions: 1 2 3 4 5 6 7 8 9 10 11 12 13 14 15
000
FTUS43 KPAH 140500
TAFEVV
TAF
KEVV 140520Z 1406/1506 22006KT 6SM -SHRA VCTS SCT045CB OVC110
      TEMPO 1407/1411 24015G25KT 2SM +TSRA BR BKN040CB
     FM141200 25007KT P6SM OVC025
     FM141700 27008KT P6SM BKN060
     FM150000 30009KT P6SM -SHRA BKN050=

USA.gov is the U.S. government's official web portal to all federal, state and local government web resources and services.